Time;durP1;ratioP1;P1;durP2;ratioP2;P2;SDS_P1;SDS_P2;PMS_P1;PMS_P2;Temp;Humidity;BMP_temperature;BMP_pressure;BME280_temperature;BME280_humidity;BME280_pressure;Samples;Min_cycle;Max_cycle;Signal;HPM_P1;HPM_P2
2022/06/20 00:02:24;;;;;;;9.18;2.17;;;14.60;99.90;;;;;;5091849;28;20459;-54
2022/06/20 00:04:52;;;;;;;11.50;2.28;;;14.60;99.90;;;;;;5091741;28;20074;-54
2022/06/20 00:07:18;;;;;;;12.90;2.53;;;14.60;99.90;;;;;;5092063;28;20044;-54
2022/06/20 00:09:45;;;;;;;9.45;2.00;;;14.60;99.90;;;;;;5091657;28;20583;-55
2022/06/20 00:12:17;;;;;;;13.60;2.30;;;14.60;99.90;;;;;;5091891;28;20036;-55
2022/06/20 00:14:43;;;;;;;11.60;2.63;;;14.60;99.90;;;;;;5091968;28;20129;-54
2022/06/20 00:17:11;;;;;;;7.47;2.30;;;14.60;99.90;;;;;;5091633;28;20052;-54
2022/06/20 00:19:37;;;;;;;5.80;2.50;;;14.60;99.90;;;;;;5092308;28;20118;-54
2022/06/20 00:22:03;;;;;;;8.75;1.90;;;14.50;99.90;;;;;;5091911;28;20056;-55
2022/06/20 00:24:30;;;;;;;8.88;1.70;;;14.60;99.90;;;;;;5091300;28;20043;-53
2022/06/20 00:26:56;;;;;;;5.10;2.03;;;14.50;99.90;;;;;;5091465;28;20513;-54
2022/06/20 00:29:22;;;;;;;8.75;2.40;;;14.60;99.90;;;;;;5091448;28;20032;-54
2022/06/20 00:31:48;;;;;;;7.97;1.90;;;14.60;99.90;;;;;;5073707;28;20040;-54
2022/06/20 00:34:13;;;;;;;8.55;2.33;;;14.50;99.90;;;;;;5091568;28;20036;-55
2022/06/20 00:36:39;;;;;;;5.55;1.67;;;14.50;99.90;;;;;;5090526;28;20052;-54
2022/06/20 00:39:06;;;;;;;6.20;1.60;;;14.60;99.90;;;;;;5091334;28;20036;-55
2022/06/20 00:41:33;;;;;;;9.07;1.75;;;14.50;99.90;;;;;;5091588;28;20040;-55
2022/06/20 00:43:59;;;;;;;5.60;1.80;;;14.50;99.90;;;;;;5091560;28;20044;-53
2022/06/20 00:46:32;;;;;;;9.65;2.10;;;14.50;99.90;;;;;;5091181;28;20047;-54
2022/06/20 00:49:03;;;;;;;9.05;2.55;;;14.50;99.90;;;;;;5091574;28;20039;-55
2022/06/20 00:51:35;;;;;;;7.90;1.88;;;14.50;99.90;;;;;;5091474;28;20596;-53
2022/06/20 00:54:18;;;;;;;6.50;1.40;;;14.40;99.90;;;;;;5091527;28;20039;-55
2022/06/20 00:56:50;;;;;;;11.30;2.20;;;14.40;99.90;;;;;;5124419;28;20040;-55
2022/06/20 00:59:25;;;;;;;10.88;3.00;;;14.50;99.90;;;;;;5091565;28;20047;-55
2022/06/20 01:01:51;;;;;;;5.70;2.17;;;14.40;99.90;;;;;;5091466;28;20391;-54
2022/06/20 01:04:55;;;;;;;10.68;3.45;;;14.40;99.90;;;;;;5091319;28;20040;-54
2022/06/20 01:07:42;;;;;;;5.88;2.03;;;14.30;99.90;;;;;;5068824;28;20052;-55
2022/06/20 01:10:12;;;;;;;9.05;2.03;;;14.30;99.90;;;;;;5051612;28;20176;-55
2022/06/20 01:13:05;;;;;;;9.70;1.98;;;14.20;99.90;;;;;;5068613;28;20119;-55
2022/06/20 01:15:39;;;;;;;6.80;1.85;;;14.20;99.90;;;;;;5068105;28;20391;-55
2022/06/20 01:18:14;;;;;;;13.52;1.88;;;14.20;99.90;;;;;;5069080;28;20092;-55
2022/06/20 01:20:43;;;;;;;13.93;1.63;;;14.10;99.90;;;;;;5068487;28;20036;-54
2022/06/20 01:23:50;;;;;;;5.63;1.50;;;14.00;99.90;;;;;;5068624;28;20105;-56
2022/06/20 01:26:40;;;;;;;7.57;2.08;;;14.00;99.90;;;;;;5059755;28;20448;-54
2022/06/20 01:29:09;;;;;;;7.18;2.13;;;13.90;99.90;;;;;;5052002;28;20052;-54
2022/06/20 01:31:37;;;;;;;;;;;13.80;99.90;;;;;;5068989;28;20052;-55
2022/06/20 01:34:03;;;;;;;10.20;1.95;;;13.80;99.90;;;;;;5068610;28;20045;-54
2022/06/20 01:39:19;;;;;;;7.43;2.10;;;13.70;99.90;;;;;;5072366;28;20051;-55
2022/06/20 01:44:36;;;;;;;7.20;1.92;;;13.70;99.90;;;;;;5091927;28;20047;-55
2022/06/20 01:47:03;;;;;;;8.20;1.98;;;13.70;99.90;;;;;;5076188;28;20040;-54
2022/06/20 01:49:32;;;;;;;7.05;2.00;;;13.70;99.90;;;;;;5094508;28;20538;-54
2022/06/20 01:52:27;;;;;;;6.65;1.98;;;13.70;99.90;;;;;;5094701;28;20115;-54
2022/06/20 01:55:04;;;;;;;5.97;1.67;;;13.60;99.90;;;;;;5071894;28;20057;-55
2022/06/20 01:57:33;;;;;;;3.50;1.80;;;13.60;99.90;;;;;;5071765;28;20057;-55
2022/06/20 02:00:12;;;;;;;12.20;2.40;;;13.50;99.90;;;;;;5071982;28;20048;-54
2022/06/20 02:02:41;;;;;;;10.95;1.80;;;13.50;99.90;;;;;;5071681;28;20133;-54
2022/06/20 02:05:10;;;;;;;7.50;2.17;;;13.50;99.90;;;;;;5071801;28;20423;-54
2022/06/20 02:07:36;;;;;;;10.02;1.45;;;13.60;99.90;;;;;;5061090;28;20058;-55
2022/06/20 02:10:04;;;;;;;8.20;1.48;;;13.60;99.90;;;;;;5051614;28;20033;-54
2022/06/20 02:12:34;;;;;;;7.05;1.50;;;13.60;99.90;;;;;;5051389;28;20049;-55
2022/06/20 02:15:01;;;;;;;6.88;2.10;;;13.60;99.90;;;;;;5034871;28;20037;-54
2022/06/20 02:17:34;;;;;;;7.68;1.50;;;13.60;99.90;;;;;;5051345;28;20469;-53
2022/06/20 02:20:05;;;;;;;6.85;1.52;;;13.60;99.90;;;;;;5051362;28;20088;-54
2022/06/20 02:22:33;;;;;;;6.05;1.50;;;13.60;99.90;;;;;;5051325;28;20041;-55
2022/06/20 02:25:06;;;;;;;8.38;1.80;;;13.70;99.90;;;;;;5051275;28;20147;-55
2022/06/20 02:27:43;;;;;;;6.65;2.00;;;13.70;99.90;;;;;;5051253;28;20128;-55
2022/06/20 02:30:10;;;;;;;8.75;1.85;;;13.70;99.90;;;;;;5038358;28;20037;-54
2022/06/20 02:32:40;;;;;;;4.95;1.48;;;13.70;99.90;;;;;;5066296;28;20490;-54
2022/06/20 02:35:09;;;;;;;8.00;1.52;;;13.70;99.90;;;;;;5073507;28;20044;-55
2022/06/20 02:37:35;;;;;;;7.80;1.60;;;13.70;99.90;;;;;;5073623;28;20048;-54
2022/06/20 02:40:05;;;;;;;6.25;2.17;;;13.70;99.90;;;;;;5073265;28;20093;-55
2022/06/20 02:42:43;;;;;;;5.03;1.48;;;13.60;99.90;;;;;;5072941;28;20123;-55
2022/06/20 02:45:11;;;;;;;5.50;1.67;;;13.60;99.90;;;;;;5072966;28;20044;-54
2022/06/20 02:47:44;;;;;;;10.85;2.15;;;13.60;99.90;;;;;;5073148;28;20036;-54
2022/06/20 02:50:12;;;;;;;5.55;1.80;;;13.50;99.90;;;;;;5072873;28;20500;-55
2022/06/20 02:53:07;;;;;;;6.07;1.60;;;13.40;99.90;;;;;;5073088;28;20036;-54
2022/06/20 02:55:35;;;;;;;7.20;1.65;;;13.30;99.90;;;;;;5057863;28;20376;-54
2022/06/20 02:58:06;;;;;;;7.95;2.08;;;13.30;99.90;;;;;;5073095;28;20069;-54
2022/06/20 03:00:39;;;;;;;8.88;1.90;;;13.10;99.90;;;;;;5072835;28;20058;-54
2022/06/20 03:03:13;;;;;;;7.25;1.95;;;13.00;99.90;;;;;;5073305;28;20043;-55
2022/06/20 03:05:39;;;;;;;3.45;1.90;;;12.90;99.90;;;;;;5072622;28;20090;-54
2022/06/20 03:08:05;;;;;;;7.20;2.25;;;12.90;99.90;;;;;;5072580;28;20510;-54
2022/06/20 03:10:38;;;;;;;8.45;2.47;;;12.90;99.90;;;;;;5072745;28;20091;-53
2022/06/20 03:13:04;;;;;;;6.70;1.90;;;12.80;99.90;;;;;;5072742;28;20040;-55
2022/06/20 03:15:31;;;;;;;8.38;2.88;;;12.80;99.90;;;;;;5072321;28;20032;-55
2022/06/20 03:17:57;;;;;;;5.18;1.73;;;12.70;99.90;;;;;;5072603;28;20037;-55
2022/06/20 03:20:25;;;;;;;7.88;2.17;;;12.70;99.90;;;;;;5072768;28;20037;-55
2022/06/20 03:23:04;;;;;;;7.15;1.67;;;12.70;99.90;;;;;;5072513;28;20032;-55
2022/06/20 03:25:30;;;;;;;8.48;2.45;;;12.60;99.90;;;;;;5072171;28;20579;-55
2022/06/20 03:27:56;;;;;;;12.50;1.88;;;12.50;99.90;;;;;;5072503;28;20464;-55
2022/06/20 03:30:29;;;;;;;7.10;1.83;;;12.50;99.90;;;;;;5072330;28;20086;-55
2022/06/20 03:32:58;;;;;;;4.32;1.70;;;12.40;99.90;;;;;;5072079;28;20474;-54
2022/06/20 03:35:26;;;;;;;7.13;1.63;;;12.30;99.90;;;;;;5072416;28;20044;-53
2022/06/20 03:37:52;;;;;;;5.17;1.77;;;12.30;99.90;;;;;;5072293;28;20104;-54
2022/06/20 03:40:18;;;;;;;6.25;1.98;;;12.30;99.90;;;;;;5072108;28;20115;-54
2022/06/20 03:42:44;;;;;;;5.70;2.08;;;12.40;99.90;;;;;;5071965;28;20523;-52
2022/06/20 03:45:12;;;;;;;5.95;1.92;;;12.40;99.90;;;;;;5072166;28;20107;-53
2022/06/20 03:47:41;;;;;;;8.65;2.20;;;12.40;99.90;;;;;;5070692;28;20045;-54
2022/06/20 03:50:16;;;;;;;9.32;1.80;;;12.40;99.90;;;;;;5071730;28;20041;-55
2022/06/20 03:53:06;;;;;;;4.57;1.70;;;12.40;99.90;;;;;;5071046;28;20051;-54
2022/06/20 03:55:42;;;;;;;5.33;2.30;;;12.40;99.90;;;;;;5060395;28;20036;-54
2022/06/20 03:58:38;;;;;;;6.53;2.22;;;12.30;99.90;;;;;;5071111;28;20036;-54
2022/06/20 04:01:16;;;;;;;6.53;2.10;;;12.30;99.90;;;;;;5070518;28;20127;-55
2022/06/20 04:03:44;;;;;;;6.82;2.53;;;12.30;99.90;;;;;;5070655;28;20051;-53
2022/06/20 04:06:29;;;;;;;8.05;2.28;;;12.30;99.90;;;;;;5071633;28;20040;-53
2022/06/20 04:12:15;;;;;;;8.38;2.17;;;12.40;99.90;;;;;;5071714;28;20044;-53
2022/06/20 04:15:06;;;;;;;11.15;2.47;;;12.40;99.90;;;;;;5071667;28;20387;-54
2022/06/20 04:20:46;;;;;;;10.45;3.10;;;12.50;99.90;;;;;;5070618;28;20123;-52
2022/06/20 04:23:21;;;;;;;8.38;2.58;;;12.50;99.90;;;;;;5058441;28;20113;-54
2022/06/20 04:25:59;;;;;;;7.85;2.53;;;12.50;99.90;;;;;;5071303;28;20071;-54
2022/06/20 04:28:43;;;;;;;10.40;2.50;;;12.60;99.90;;;;;;5071672;28;20115;-54
2022/06/20 04:31:25;;;;;;;8.35;2.22;;;12.60;99.90;;;;;;5070019;28;20456;-56
2022/06/20 04:34:08;;;;;;;11.02;3.13;;;12.60;99.90;;;;;;5071620;28;20036;-53
2022/06/20 04:36:56;;;;;;;9.60;2.65;;;12.60;99.90;;;;;;5071550;28;20040;-55
2022/06/20 04:39:45;;;;;;;11.25;3.17;;;12.70;99.90;;;;;;5071238;28;20111;-54
2022/06/20 04:42:17;;;;;;;6.32;2.72;;;12.80;99.90;;;;;;5066917;28;20044;-54
2022/06/20 04:44:54;;;;;;;9.32;2.85;;;12.80;99.90;;;;;;5069132;28;20479;-54
2022/06/20 04:47:40;;;;;;;10.95;2.58;;;12.80;99.90;;;;;;5069208;28;20044;-54
2022/06/20 04:50:12;;;;;;;7.20;2.67;;;12.80;99.90;;;;;;5069929;28;20037;-55
2022/06/20 04:52:38;;;;;;;7.90;2.95;;;12.80;99.90;;;;;;5071712;28;20052;-55
2022/06/20 04:55:05;;;;;;;6.88;2.60;;;12.80;99.90;;;;;;5071440;28;20224;-54
2022/06/20 04:57:32;;;;;;;7.10;3.03;;;12.80;99.90;;;;;;5070225;28;20141;-53
2022/06/20 05:00:03;;;;;;;5.30;2.58;;;12.80;99.90;;;;;;5070047;28;20067;-55
2022/06/20 05:02:29;;;;;;;8.93;3.33;;;12.90;99.90;;;;;;5069911;28;20068;-55
2022/06/20 05:04:58;;;;;;;12.88;3.53;;;12.90;99.90;;;;;;5071195;28;20125;-54
2022/06/20 05:07:29;;;;;;;10.60;3.03;;;13.10;99.90;;;;;;5071304;28;20047;-55
2022/06/20 05:10:24;;;;;;;12.68;3.30;;;13.20;99.90;;;;;;5070215;28;20048;-54
2022/06/20 05:12:59;;;;;;;10.75;4.10;;;13.30;99.90;;;;;;5073856;28;20048;-55
2022/06/20 05:15:33;;;;;;;8.38;3.75;;;13.40;99.90;;;;;;5074782;28;20039;-54
2022/06/20 05:18:06;;;;;;;13.77;3.67;;;13.40;99.90;;;;;;5074973;28;20162;-54
2022/06/20 05:20:36;;;;;;;13.00;3.28;;;13.50;99.90;;;;;;5074545;28;20073;-55
2022/06/20 05:23:11;;;;;;;10.98;3.50;;;13.60;99.90;;;;;;5074763;28;20036;-53
2022/06/20 05:25:37;;;;;;;13.73;4.60;;;13.70;99.90;;;;;;5073160;28;20036;-55
2022/06/20 05:28:17;;;;;;;12.80;3.60;;;13.70;99.90;;;;;;5074904;28;20501;-55
2022/06/20 05:30:44;;;;;;;9.93;3.17;;;13.80;99.90;;;;;;5074637;28;20037;-55
2022/06/20 05:33:28;;;;;;;8.18;3.55;;;13.80;99.90;;;;;;5074567;28;20040;-55
2022/06/20 05:36:02;;;;;;;14.80;4.10;;;13.90;99.90;;;;;;5073025;28;20052;-55
2022/06/20 05:38:52;;;;;;;9.07;4.00;;;13.90;99.90;;;;;;5073385;28;20044;-54
2022/06/20 05:41:18;;;;;;;15.35;4.32;;;14.00;99.90;;;;;;5073435;28;20123;-54
2022/06/20 05:43:44;;;;;;;11.95;4.20;;;14.10;99.90;;;;;;5074643;28;20151;-54
2022/06/20 05:46:40;;;;;;;14.18;3.45;;;14.10;99.90;;;;;;5073189;28;20500;-54
2022/06/20 05:49:14;;;;;;;14.45;3.65;;;14.20;99.90;;;;;;5051937;28;20076;-53
2022/06/20 05:51:42;;;;;;;9.32;3.08;;;14.30;99.90;;;;;;5051892;28;20095;-54
2022/06/20 05:54:39;;;;;;;18.15;3.80;;;14.30;99.90;;;;;;5051929;28;20086;-55
2022/06/20 05:57:13;;;;;;;13.98;3.92;;;14.50;99.90;;;;;;5051060;28;20053;-54
2022/06/20 05:59:46;;;;;;;9.43;3.13;;;14.60;99.90;;;;;;5051682;28;20049;-53
2022/06/20 06:02:18;;;;;;;11.20;3.97;;;14.60;99.90;;;;;;5051837;28;20041;-55
2022/06/20 06:04:52;;;;;;;8.10;3.05;;;14.80;99.90;;;;;;5068642;28;20230;-53
2022/06/20 06:07:27;;;;;;;13.90;3.00;;;14.90;99.90;;;;;;5051675;28;20072;-53
2022/06/20 06:10:00;;;;;;;13.88;3.40;;;15.00;99.90;;;;;;5051636;28;20044;-55
2022/06/20 06:12:45;;;;;;;14.27;3.20;;;15.10;99.90;;;;;;5035447;28;20536;-55
2022/06/20 06:15:33;;;;;;;15.93;3.88;;;15.10;99.90;;;;;;5051552;28;20041;-54
2022/06/20 06:18:03;;;;;;;9.85;3.38;;;15.30;99.90;;;;;;5051546;28;20387;-55
2022/06/20 06:20:31;;;;;;;7.15;1.98;;;15.30;99.90;;;;;;5051431;28;20052;-54
2022/06/20 06:23:02;;;;;;;6.90;3.03;;;15.40;99.90;;;;;;5051592;28;20033;-55
2022/06/20 06:25:32;;;;;;;11.50;3.03;;;15.60;99.90;;;;;;5051901;28;20053;-55
2022/06/20 06:28:05;;;;;;;17.23;3.30;;;15.60;99.90;;;;;;5072229;28;20048;-55
2022/06/20 06:30:37;;;;;;;10.95;3.22;;;15.50;99.90;;;;;;5074116;28;20036;-55
2022/06/20 06:33:23;;;;;;;12.18;3.17;;;15.60;99.90;;;;;;5074110;28;20029;-55
2022/06/20 06:35:56;;;;;;;12.60;3.15;;;15.30;99.90;;;;;;5073080;28;20056;-55
2022/06/20 06:38:32;;;;;;;10.70;2.97;;;15.20;99.90;;;;;;5074071;28;20059;-55
2022/06/20 06:41:01;;;;;;;13.45;3.58;;;15.10;99.90;;;;;;5074063;28;20047;-55
2022/06/20 06:43:28;;;;;;;12.20;3.00;;;15.00;99.90;;;;;;5073780;28;20047;-55
2022/06/20 06:45:57;;;;;;;9.43;2.60;;;15.10;99.90;;;;;;5072265;28;20048;-55
2022/06/20 06:48:43;;;;;;;14.40;3.58;;;15.30;99.90;;;;;;5089712;28;20497;-54
2022/06/20 06:51:11;;;;;;;8.73;2.50;;;15.40;99.90;;;;;;5093747;28;20098;-55
2022/06/20 06:54:12;;;;;;;15.35;2.47;;;15.40;99.90;;;;;;5092350;28;20489;-56
2022/06/20 06:56:46;;;;;;;10.65;2.85;;;15.40;99.90;;;;;;5071690;28;20430;-55
2022/06/20 06:59:15;;;;;;;7.10;2.58;;;15.70;99.90;;;;;;5054475;28;20135;-56
2022/06/20 07:01:44;;;;;;;10.90;3.85;;;16.00;99.90;;;;;;5071494;28;20183;-54
2022/06/20 07:04:28;;;;;;;12.85;3.10;;;16.20;99.90;;;;;;5071213;28;20490;-55
2022/06/20 07:07:11;;;;;;;12.75;2.30;;;16.50;99.90;;;;;;5070987;28;20052;-55
2022/06/20 07:09:51;;;;;;;10.93;2.78;;;16.20;99.90;;;;;;5070809;28;20068;-54
2022/06/20 07:12:26;;;;;;;8.63;2.70;;;16.20;99.90;;;;;;5071504;28;20097;-54
2022/06/20 07:15:12;;;;;;;13.00;3.60;;;16.50;99.90;;;;;;5070729;28;20036;-54
2022/06/20 07:17:44;;;;;;;16.17;2.60;;;16.90;99.90;;;;;;5052523;28;20043;-55
2022/06/20 07:20:11;;;;;;;10.57;2.85;;;17.00;99.90;;;;;;5050804;28;20056;-54
2022/06/20 07:22:40;;;;;;;11.20;2.25;;;16.90;99.90;;;;;;5050846;28;20044;-54
2022/06/20 07:25:12;;;;;;;8.15;2.13;;;16.80;99.90;;;;;;5050697;28;20052;-55
2022/06/20 07:27:51;;;;;;;9.75;2.30;;;16.50;99.90;;;;;;5050374;28;20085;-55
2022/06/20 07:30:22;;;;;;;9.60;2.70;;;16.40;99.90;;;;;;5050799;28;20037;-54
2022/06/20 07:33:05;;;;;;;9.00;2.22;;;16.70;99.90;;;;;;5042897;28;20551;-55
2022/06/20 07:35:46;;;;;;;11.10;2.72;;;17.00;99.90;;;;;;5072770;28;20051;-55
2022/06/20 07:38:21;;;;;;;7.20;2.08;;;17.10;99.90;;;;;;5072712;28;20486;-54
2022/06/20 07:40:53;;;;;;;6.95;1.88;;;17.10;99.90;;;;;;5072691;28;20575;-55
2022/06/20 07:43:28;;;;;;;7.18;2.53;;;17.00;99.90;;;;;;5072583;28;20412;-54
2022/06/20 07:45:55;;;;;;;6.25;1.50;;;16.80;99.90;;;;;;5072809;28;20057;-55
2022/06/20 07:48:30;;;;;;;6.45;1.80;;;16.60;99.90;;;;;;5072496;28;20120;-55
2022/06/20 07:51:15;;;;;;;6.07;1.58;;;16.90;99.90;;;;;;5072553;28;20036;-56
2022/06/20 07:54:12;;;;;;;7.13;1.38;;;17.30;99.90;;;;;;5059736;28;20161;-55
2022/06/20 07:56:59;;;;;;;6.95;2.15;;;17.70;99.90;;;;;;5049979;28;20045;-54
2022/06/20 07:59:34;;;;;;;8.90;1.98;;;18.30;99.90;;;;;;5050371;28;20049;-54
2022/06/20 08:02:25;;;;;;;6.78;1.42;;;18.30;99.90;;;;;;5050279;28;20159;-55
2022/06/20 08:04:57;;;;;;;6.43;1.85;;;18.50;99.90;;;;;;5050153;28;20395;-54
2022/06/20 08:07:52;;;;;;;3.85;1.50;;;18.00;99.90;;;;;;5050154;28;20053;-55
2022/06/20 08:10:25;;;;;;;4.00;1.10;;;18.00;99.90;;;;;;5033159;28;20076;-54
2022/06/20 08:13:02;;;;;;;5.93;1.65;;;18.00;99.90;;;;;;5068694;28;20124;-54
2022/06/20 08:15:33;;;;;;;5.53;1.35;;;17.70;99.90;;;;;;5069466;28;20096;-55
2022/06/20 08:18:00;;;;;;;2.85;1.08;;;17.60;99.90;;;;;;5049923;28;20048;-54
2022/06/20 08:20:31;;;;;;;5.38;1.80;;;18.00;99.90;;;;;;5049772;28;20458;-54
2022/06/20 08:23:08;;;;;;;7.80;1.73;;;18.40;99.90;;;;;;5049811;28;20372;-55
2022/06/20 08:25:39;;;;;;;9.73;1.90;;;18.40;99.90;;;;;;5049568;28;20043;-54
2022/06/20 08:28:10;;;;;;;3.47;1.33;;;18.40;99.90;;;;;;5049779;28;20052;-54
2022/06/20 08:30:43;;;;;;;4.68;1.50;;;18.40;99.90;;;;;;5049954;28;20067;-54
2022/06/20 08:33:22;;;;;;;6.63;1.40;;;18.40;99.90;;;;;;5047698;28;20061;-54
2022/06/20 08:35:53;;;;;;;5.57;1.40;;;18.70;99.90;;;;;;5071740;28;20490;-55
2022/06/20 08:38:32;;;;;;;2.42;1.15;;;19.20;99.90;;;;;;5079234;28;20160;-56
2022/06/20 08:41:28;;;;;;;4.78;1.45;;;19.00;99.90;;;;;;5092172;28;20028;-55
2022/06/20 08:44:38;;;;;;;5.25;1.70;;;18.50;99.90;;;;;;5092801;28;20386;-55
2022/06/20 08:47:51;;;;;;;8.50;2.40;;;18.60;99.90;;;;;;5066213;28;20036;-56
2022/06/20 08:50:40;;;;;;;2.90;1.17;;;18.70;99.90;;;;;;5014153;28;20508;-55
2022/06/20 08:53:24;;;;;;;7.63;1.92;;;18.50;99.90;;;;;;4974951;28;20057;-55
2022/06/20 08:55:50;;;;;;;5.82;1.88;;;18.50;99.90;;;;;;4958291;28;20075;-56
2022/06/20 08:58:43;;;;;;;9.65;2.03;;;18.20;99.90;;;;;;4974914;28;20078;-56
2022/06/20 09:01:18;;;;;;;8.70;1.63;;;18.20;99.90;;;;;;4974503;28;20046;-56
2022/06/20 09:03:54;;;;;;;4.35;1.50;;;18.00;99.90;;;;;;4974666;28;20121;-55
2022/06/20 09:06:46;;;;;;;5.03;1.55;;;18.40;99.90;;;;;;4974233;28;20058;-56
2022/06/20 09:09:19;;;;;;;7.97;2.00;;;18.70;99.90;;;;;;4898202;29;20060;-56
2022/06/20 09:12:03;;;;;;;6.15;1.80;;;18.40;99.90;;;;;;4897825;29;20056;-56
2022/06/20 09:14:37;;;;;;;5.65;1.35;;;18.50;99.90;;;;;;4897982;29;20088;-56
2022/06/20 09:17:25;;;;;;;4.07;1.38;;;18.90;99.90;;;;;;4898015;29;20120;-56
2022/06/20 09:20:02;;;;;;;7.95;1.70;;;19.50;99.90;;;;;;4897638;29;20444;-55
2022/06/20 09:23:04;;;;;;;4.00;1.50;;;19.80;99.90;;;;;;4882199;29;20080;-56
2022/06/20 09:25:45;;;;;;;5.13;1.23;;;19.70;99.90;;;;;;4897611;29;20044;-55
2022/06/20 09:28:25;;;;;;;4.18;1.25;;;20.10;99.90;;;;;;4916777;29;20056;-54
2022/06/20 09:31:29;;;;;;;4.43;1.50;;;20.40;99.90;;;;;;4971218;28;20061;-55
2022/06/20 09:34:16;;;;;;;7.90;1.65;;;20.50;99.90;;;;;;4973492;28;20055;-55
2022/06/20 09:36:56;;;;;;;5.72;1.33;;;20.30;99.90;;;;;;4974087;28;20063;-55
2022/06/20 09:39:32;;;;;;;4.63;1.50;;;20.30;99.90;;;;;;4973984;28;20049;-55
2022/06/20 09:41:57;;;;;;;6.10;1.40;;;20.30;99.90;;;;;;4973877;28;20485;-55
2022/06/20 09:44:42;;;;;;;7.95;1.88;;;20.00;99.90;;;;;;4973891;28;20054;-55
2022/06/20 09:47:25;;;;;;;6.13;1.83;;;19.70;99.90;;;;;;5068687;28;20076;-55
2022/06/20 09:50:25;;;;;;;5.78;1.40;;;19.00;99.90;;;;;;5072323;28;20074;-55
2022/06/20 09:53:11;;;;;;;3.40;1.30;;;18.80;99.90;;;;;;5072554;28;20036;-55
2022/06/20 09:56:00;;;;;;;6.82;1.60;;;19.00;99.90;;;;;;5071523;28;20029;-56
2022/06/20 09:58:32;;;;;;;7.63;1.70;;;19.50;99.90;;;;;;5072465;28;20049;-55
2022/06/20 10:01:27;;;;;;;4.20;0.80;;;19.90;99.90;;;;;;5072266;28;20313;-55
2022/06/20 10:04:09;;;;;;;6.82;1.08;;;20.30;99.90;;;;;;5072346;28;20462;-55
2022/06/20 10:07:03;;;;;;;5.43;1.02;;;20.40;99.90;;;;;;5072546;28;20049;-55
2022/06/20 10:09:52;;;;;;;6.20;1.60;;;20.50;99.90;;;;;;5071714;28;20375;-54
2022/06/20 10:12:33;;;;;;;3.70;1.27;;;20.60;99.90;;;;;;5094310;28;20036;-56
2022/06/20 10:15:09;;;;;;;5.47;1.60;;;20.40;99.90;;;;;;5093617;28;20485;-55
2022/06/20 10:17:40;;;;;;;3.17;1.20;;;20.60;99.90;;;;;;5075035;28;20032;-55
2022/06/20 10:20:33;;;;;;;5.35;1.55;;;20.30;99.90;;;;;;5074221;28;20486;-55
2022/06/20 10:23:25;;;;;;;4.50;1.40;;;20.50;99.90;;;;;;5060544;28;20040;-56
2022/06/20 10:26:20;;;;;;;8.40;1.70;;;20.50;99.90;;;;;;5073973;28;20406;-55
2022/06/20 10:29:10;;;;;;;4.78;1.52;;;21.10;99.90;;;;;;5051825;28;20077;-55
2022/06/20 10:31:41;;;;;;;4.55;1.60;;;21.10;99.90;;;;;;5012232;28;20124;-56
2022/06/20 10:34:12;;;;;;;9.23;2.08;;;21.00;99.90;;;;;;5011970;28;20045;-56
2022/06/20 10:36:49;;;;;;;5.25;1.33;;;21.20;99.90;;;;;;5011937;28;20049;-55
2022/06/20 10:39:41;;;;;;;6.53;1.58;;;21.10;99.90;;;;;;5011779;28;20081;-56
2022/06/20 10:42:33;;;;;;;4.43;1.63;;;21.20;99.90;;;;;;5009230;28;20085;-55
2022/06/20 10:45:36;;;;;;;5.32;1.50;;;21.60;99.90;;;;;;4995651;28;20097;-55
2022/06/20 10:48:23;;;;;;;4.97;1.35;;;21.80;99.90;;;;;;5011816;28;20048;-55
2022/06/20 10:51:16;;;;;;;7.28;1.75;;;22.20;99.90;;;;;;5011950;28;20096;-55
2022/06/20 10:54:11;;;;;;;4.95;1.40;;;22.30;99.90;;;;;;5000155;28;20066;-55
2022/06/20 10:56:51;;;;;;;9.88;1.88;;;22.20;99.90;;;;;;4999393;28;20041;-56
2022/06/20 10:59:31;;;;;;;6.47;1.70;;;21.90;99.90;;;;;;5026087;28;20045;-55
2022/06/20 11:02:03;;;;;;;8.65;2.05;;;22.20;99.90;;;;;;5014539;28;20045;-55
2022/06/20 11:04:50;;;;;;;7.32;1.80;;;22.10;99.90;;;;;;5031309;28;20411;-55
2022/06/20 11:07:38;;;;;;;5.95;1.65;;;22.30;99.90;;;;;;5070926;28;20040;-55
2022/06/20 11:10:04;;;;;;;3.15;1.33;;;22.40;99.90;;;;;;5093161;28;20040;-55
2022/06/20 11:12:38;;;;;;;6.38;1.65;;;22.50;99.90;;;;;;5093730;28;20044;-55
2022/06/20 11:15:45;;;;;;;3.88;1.40;;;22.60;99.90;;;;;;5093344;28;20047;-56
2022/06/20 11:18:48;;;;;;;5.07;1.52;;;22.30;99.90;;;;;;5062310;28;20037;-55
2022/06/20 11:21:36;;;;;;;6.63;1.80;;;22.30;99.90;;;;;;5077712;28;20051;-56
2022/06/20 11:24:23;;;;;;;5.60;1.52;;;21.80;99.90;;;;;;5067877;28;20032;-56
2022/06/20 11:27:07;;;;;;;6.38;1.77;;;21.90;99.90;;;;;;5092955;28;20402;-55
2022/06/20 11:29:48;;;;;;;5.20;1.27;;;22.20;99.90;;;;;;5093530;28;20044;-54
2022/06/20 11:32:28;;;;;;;3.90;1.30;;;22.20;99.90;;;;;;5091101;28;20039;-55
2022/06/20 11:35:13;;;;;;;4.13;1.17;;;22.40;99.90;;;;;;5093456;28;20032;-55
2022/06/20 11:38:03;;;;;;;5.50;1.30;;;22.30;99.90;;;;;;5075348;28;20044;-55
2022/06/20 11:40:41;;;;;;;4.68;1.40;;;22.40;99.90;;;;;;5089584;28;20039;-55
2022/06/20 11:43:37;;;;;;;7.47;1.30;;;22.20;99.90;;;;;;5091610;28;20040;-56
2022/06/20 11:46:29;;;;;;;4.22;1.23;;;22.00;99.90;;;;;;5065794;28;20048;-55
2022/06/20 11:49:21;;;;;;;5.50;1.38;;;21.60;99.90;;;;;;5092633;28;20040;-55
2022/06/20 11:51:55;;;;;;;8.05;1.70;;;20.90;99.90;;;;;;5092907;28;20036;-55
2022/06/20 11:54:49;;;;;;;6.13;1.88;;;21.00;99.90;;;;;;5092518;28;20035;-55
2022/06/20 11:57:32;;;;;;;7.65;1.67;;;20.40;99.90;;;;;;5092768;28;20040;-56
2022/06/20 12:00:03;;;;;;;8.02;2.22;;;20.10;99.90;;;;;;5092953;28;20028;-55
2022/06/20 12:02:37;;;;;;;9.05;1.90;;;20.10;99.90;;;;;;5092818;28;20378;-54
2022/06/20 12:05:25;;;;;;;4.55;1.83;;;20.10;99.90;;;;;;5092635;28;20401;-55
2022/06/20 12:07:59;;;;;;;9.98;2.22;;;20.20;99.90;;;;;;5092125;28;20067;-56
2022/06/20 12:10:40;;;;;;;7.03;2.03;;;20.30;99.90;;;;;;5092747;28;20050;-55
2022/06/20 12:13:33;;;;;;;13.20;2.05;;;20.70;99.90;;;;;;5091435;28;20072;-55
2022/06/20 12:16:17;;;;;;;9.82;1.67;;;20.60;99.90;;;;;;5087402;28;20393;-55
2022/06/20 12:24:23;;;;;;;6.22;1.80;;;20.60;99.90;;;;;;5072152;28;20044;-55
2022/06/20 12:26:49;;;;;;;6.22;1.60;;;20.90;99.90;;;;;;5071992;28;20155;-55
2022/06/20 12:29:22;;;;;;;3.38;1.10;;;21.40;99.90;;;;;;5072107;28;20051;-55
2022/06/20 12:31:52;;;;;;;5.13;1.60;;;21.30;99.90;;;;;;5072002;28;20047;-55
2022/06/20 12:34:18;;;;;;;4.40;1.25;;;21.10;99.90;;;;;;5071862;28;20040;-55
2022/06/20 12:37:02;;;;;;;13.43;2.78;;;20.50;99.90;;;;;;5071958;28;20513;-55
2022/06/20 12:39:34;;;;;;;4.30;1.20;;;20.00;99.90;;;;;;5071973;28;20047;-55
2022/06/20 12:42:11;;;;;;;4.90;1.60;;;20.00;99.90;;;;;;5070908;28;20284;-55
2022/06/20 12:44:51;;;;;;;4.75;1.33;;;20.30;99.90;;;;;;5072148;28;20079;-55
2022/06/20 12:47:29;;;;;;;7.95;1.70;;;20.10;99.90;;;;;;5070139;28;20040;-55
2022/06/20 12:50:02;;;;;;;4.70;1.58;;;19.70;99.90;;;;;;5071777;28;20028;-55
2022/06/20 12:53:04;;;;;;;4.35;1.75;;;20.00;99.90;;;;;;5072007;28;20036;-55
2022/06/20 12:55:38;;;;;;;5.38;1.60;;;19.80;99.90;;;;;;5059972;28;20045;-55
2022/06/20 12:58:39;;;;;;;4.22;1.70;;;20.20;99.90;;;;;;5072011;28;20048;-55
2022/06/20 13:01:08;;;;;;;;;;;20.40;99.90;;;;;;5072447;28;20491;-55
2022/06/20 13:04:14;;;;;;;3.25;1.60;;;20.60;99.90;;;;;;5071867;28;19923;-55
2022/06/20 13:06:49;;;;;;;5.15;1.20;;;20.90;99.90;;;;;;5049460;28;20053;-56
2022/06/20 13:09:45;;;;;;;5.85;1.77;;;20.70;99.90;;;;;;5049803;28;20138;-55
2022/06/20 13:12:37;;;;;;;10.10;2.15;;;21.30;99.90;;;;;;5049561;28;20119;-55
2022/06/20 13:15:34;;;;;;;6.82;1.80;;;21.80;99.90;;;;;;5049251;28;20099;-55
2022/06/20 13:18:35;;;;;;;6.20;1.17;;;21.70;99.90;;;;;;5066477;28;20127;-56
2022/06/20 13:21:07;;;;;;;4.32;1.23;;;21.70;99.90;;;;;;5049156;28;20486;-55
2022/06/20 13:24:00;;;;;;;6.80;1.55;;;21.50;99.90;;;;;;5032939;28;20045;-56
2022/06/20 13:26:47;;;;;;;5.32;1.60;;;21.60;99.90;;;;;;5049249;28;20538;-56
2022/06/20 13:29:34;;;;;;;4.03;1.42;;;21.50;99.90;;;;;;5049127;28;20037;-55
2022/06/20 13:32:17;;;;;;;4.75;1.40;;;20.90;99.90;;;;;;5051201;28;20037;-55
2022/06/20 13:34:51;;;;;;;7.90;1.63;;;20.80;99.90;;;;;;5052824;28;20037;-56
2022/06/20 13:37:40;;;;;;;6.03;1.50;;;21.00;99.90;;;;;;5053173;28;20496;-56
2022/06/20 13:40:25;;;;;;;6.83;1.57;;;21.10;99.90;;;;;;5052936;28;20518;-56
2022/06/20 13:43:01;;;;;;;4.82;1.63;;;21.30;99.90;;;;;;5070450;28;20391;-56
2022/06/20 13:45:34;;;;;;;3.63;1.50;;;21.60;99.90;;;;;;5073404;28;20050;-55
2022/06/20 13:48:19;;;;;;;6.82;1.50;;;21.20;99.90;;;;;;5073146;28;20076;-55
2022/06/20 13:51:05;;;;;;;3.80;1.30;;;21.30;99.90;;;;;;5074968;28;20041;-54
2022/06/20 13:53:46;;;;;;;5.22;1.25;;;21.90;99.90;;;;;;5052517;28;20052;-55
2022/06/20 13:56:24;;;;;;;6.28;1.85;;;22.00;99.90;;;;;;5069160;28;20234;-56
2022/06/20 13:59:28;;;;;;;5.10;1.30;;;21.90;99.90;;;;;;5052501;28;20391;-56